createdAt,value
2022-12-10T00:01:55.589Z,14.10
2022-12-10T00:04:23.613Z,16.50
2022-12-10T00:06:51.420Z,18.20
2022-12-10T00:09:21.547Z,18.60
2022-12-10T00:11:49.479Z,19.30
2022-12-10T00:14:18.198Z,20.00
2022-12-10T00:16:46.175Z,16.50
2022-12-10T00:19:14.108Z,12.30
2022-12-10T00:21:43.948Z,13.10
2022-12-10T00:24:12.323Z,18.10
2022-12-10T00:26:41.116Z,23.80
2022-12-10T00:29:12.472Z,17.70
2022-12-10T00:31:41.408Z,14.30
2022-12-10T00:34:11.561Z,16.10
2022-12-10T00:36:47.991Z,12.50
2022-12-10T00:39:18.517Z,12.40
2022-12-10T00:41:46.993Z,23.50
2022-12-10T00:44:16.361Z,14.40
2022-12-10T00:46:44.581Z,12.20
2022-12-10T00:49:13.204Z,14.80
2022-12-10T00:51:41.534Z,15.20
2022-12-10T00:54:09.687Z,10.80
2022-12-10T00:56:38.070Z,13.20
2022-12-10T00:59:06.022Z,10.40
2022-12-10T01:01:40.197Z,14.40
2022-12-10T01:04:12.596Z,16.20
2022-12-10T01:06:53.597Z,10.40
2022-12-10T01:09:26.821Z,11.60
2022-12-10T01:11:57.146Z,14.90
2022-12-10T01:14:29.534Z,16.60
2022-12-10T01:17:00.766Z,14.20
2022-12-10T01:19:28.664Z,13.70
2022-12-10T01:21:57.909Z,15.40
2022-12-10T01:24:28.234Z,10.60
2022-12-10T01:26:56.257Z,14.30
2022-12-10T01:29:24.371Z,14.60
2022-12-10T01:31:54.604Z,15.00
2022-12-10T01:34:23.301Z,12.30
2022-12-10T01:36:53.962Z,13.90
2022-12-10T01:39:23.784Z,22.50
2022-12-10T01:41:57.683Z,12.10
2022-12-10T01:44:25.441Z,13.60
2022-12-10T01:46:55.587Z,15.90
2022-12-10T01:49:37.357Z,12.40
2022-12-10T01:52:12.580Z,10.00
2022-12-10T01:54:46.794Z,15.30
2022-12-10T01:57:27.187Z,12.70
2022-12-10T02:00:02.741Z,22.20
2022-12-10T02:02:49.835Z,14.30
2022-12-10T02:05:23.647Z,14.00
2022-12-10T02:08:05.466Z,13.20
2022-12-10T02:10:48.741Z,16.00
2022-12-10T02:13:29.980Z,11.10
2022-12-10T02:16:13.568Z,10.50
2022-12-10T02:18:52.914Z,12.00
2022-12-10T02:21:27.277Z,10.80
2022-12-10T02:24:01.004Z,17.50
2022-12-10T02:26:47.757Z,10.50
2022-12-10T02:29:25.665Z,14.30
2022-12-10T02:32:00.986Z,12.50
2022-12-10T02:34:32.894Z,15.80
2022-12-10T02:37:07.821Z,8.20
2022-12-10T02:39:44.042Z,11.50
2022-12-10T02:42:13.772Z,10.90
2022-12-10T02:44:45.666Z,13.00
2022-12-10T02:47:16.752Z,15.10
2022-12-10T02:49:53.997Z,12.10
2022-12-10T02:52:23.901Z,12.70
2022-12-10T02:54:54.096Z,8.00
2022-12-10T02:57:58.904Z,10.20
2022-12-10T03:00:27.281Z,6.80
2022-12-10T03:03:24.077Z,5.60
2022-12-10T03:06:04.135Z,11.00
2022-12-10T03:08:50.098Z,9.60
2022-12-10T03:11:22.560Z,10.10
2022-12-10T03:14:14.970Z,12.90
2022-12-10T03:16:47.608Z,12.80
2022-12-10T03:19:19.844Z,13.50
2022-12-10T03:21:50.233Z,9.70
2022-12-10T03:24:19.403Z,10.30
2022-12-10T03:26:51.007Z,14.50
2022-12-10T03:29:25.701Z,11.50
2022-12-10T03:31:54.992Z,12.50
2022-12-10T03:34:23.821Z,11.50
2022-12-10T03:36:53.022Z,10.60
2022-12-10T03:39:21.399Z,11.60
2022-12-10T03:41:49.292Z,10.20
2022-12-10T03:44:32.092Z,8.60
2022-12-10T03:47:00.362Z,11.70
2022-12-10T03:49:28.397Z,11.60
2022-12-10T03:51:56.804Z,10.60
2022-12-10T03:54:24.664Z,11.80
2022-12-10T03:56:53.047Z,9.00
2022-12-10T03:59:21.094Z,9.90
2022-12-10T04:01:49.706Z,8.20
2022-12-10T04:04:17.925Z,15.60
2022-12-10T04:06:46.256Z,10.60
2022-12-10T04:09:15.704Z,13.50
2022-12-10T04:11:44.958Z,12.00
2022-12-10T04:14:32.634Z,9.70
2022-12-10T04:17:00.939Z,12.50
2022-12-10T04:19:29.033Z,44.20
2022-12-10T04:22:15.657Z,24.30
2022-12-10T04:25:02.244Z,17.10
2022-12-10T04:27:33.739Z,16.50
2022-12-10T04:30:02.175Z,10.00
2022-12-10T04:32:30.862Z,10.30
2022-12-10T04:34:58.728Z,14.70
2022-12-10T04:37:27.926Z,14.20
2022-12-10T04:39:56.276Z,13.00
2022-12-10T04:42:24.117Z,13.90
2022-12-10T04:44:52.238Z,9.20
2022-12-10T04:47:20.618Z,11.20
2022-12-10T04:49:48.688Z,15.00
2022-12-10T04:52:18.047Z,9.00
2022-12-10T04:54:46.267Z,10.50
2022-12-10T04:57:15.370Z,20.00
2022-12-10T04:59:43.428Z,13.50
2022-12-10T05:02:11.838Z,9.70
2022-12-10T05:04:39.919Z,9.40
2022-12-10T05:07:08.156Z,10.30
2022-12-10T05:09:36.091Z,14.50
2022-12-10T05:12:05.331Z,10.40
2022-12-10T05:14:33.514Z,8.80
2022-12-10T05:17:01.667Z,10.70
2022-12-10T05:19:29.605Z,9.80
2022-12-10T05:22:16.143Z,10.00
2022-12-10T05:24:44.016Z,14.40
2022-12-10T05:27:12.179Z,12.80
2022-12-10T05:29:39.972Z,11.60
2022-12-10T05:32:08.116Z,13.30
2022-12-10T05:34:36.131Z,14.70
2022-12-10T05:37:03.951Z,15.10
2022-12-10T05:39:31.749Z,10.60
2022-12-10T05:41:59.472Z,19.70
2022-12-10T05:44:27.437Z,11.40
2022-12-10T05:46:55.300Z,9.10
2022-12-10T05:49:23.250Z,16.10
2022-12-10T05:51:51.256Z,13.10
2022-12-10T05:54:19.116Z,11.30
2022-12-10T05:56:47.062Z,15.60
2022-12-10T05:59:17.167Z,23.60
2022-12-10T06:01:45.333Z,18.50
2022-12-10T06:04:14.616Z,16.20
2022-12-10T06:06:43.058Z,21.40
2022-12-10T06:09:14.091Z,12.10
2022-12-10T06:11:42.473Z,15.30
2022-12-10T06:14:11.655Z,18.30
2022-12-10T06:16:40.972Z,18.00
2022-12-10T06:19:08.816Z,48.40
2022-12-10T06:21:36.775Z,54.40
2022-12-10T06:24:04.919Z,61.20
2022-12-10T06:26:32.951Z,51.10
2022-12-10T06:29:01.529Z,43.90
2022-12-10T06:31:29.658Z,52.50
2022-12-10T06:33:57.779Z,34.30
2022-12-10T06:36:25.742Z,32.80
2022-12-10T06:38:53.734Z,30.20
2022-12-10T06:41:21.784Z,44.00
2022-12-10T06:43:49.957Z,36.90
2022-12-10T06:46:20.544Z,67.30
2022-12-10T06:48:48.659Z,81.40
2022-12-10T06:51:18.506Z,65.60
2022-12-10T06:53:47.260Z,62.50
2022-12-10T06:56:19.890Z,56.30
2022-12-10T06:58:49.032Z,41.90
2022-12-10T07:01:21.074Z,40.10
2022-12-10T07:03:50.845Z,39.80
2022-12-10T07:06:20.720Z,27.40
2022-12-10T07:08:51.459Z,25.20
2022-12-10T07:11:22.522Z,24.80
2022-12-10T07:13:51.300Z,21.20
2022-12-10T07:16:22.385Z,16.60
2022-12-10T07:18:52.773Z,17.80
2022-12-10T07:21:22.664Z,16.00
2022-12-10T07:23:52.109Z,13.80
2022-12-10T07:26:20.755Z,11.40
2022-12-10T07:28:53.044Z,10.80
2022-12-10T07:31:23.130Z,9.80
2022-12-10T07:33:52.857Z,15.30
2022-12-10T07:36:23.709Z,13.00
2022-12-10T07:41:21.661Z,8.30
2022-12-10T07:43:50.263Z,11.20
2022-12-10T07:46:20.948Z,12.60
2022-12-10T07:48:50.119Z,9.30
2022-12-10T07:51:21.618Z,16.30
2022-12-10T07:53:53.595Z,13.00
2022-12-10T07:56:23.498Z,16.60
2022-12-10T07:58:53.405Z,12.60
2022-12-10T08:01:24.512Z,21.70
2022-12-10T08:03:54.804Z,15.30
2022-12-10T08:06:23.785Z,9.40
2022-12-10T08:08:51.893Z,20.40
2022-12-10T08:11:21.803Z,13.70
2022-12-10T08:13:55.132Z,21.50
2022-12-10T08:16:28.427Z,19.20
2022-12-10T08:21:28.280Z,11.20
2022-12-10T08:26:27.211Z,14.00
2022-12-10T08:28:56.385Z,13.90
2022-12-10T08:31:26.374Z,13.30
2022-12-10T08:33:54.589Z,9.40
2022-12-10T08:36:23.032Z,10.70
2022-12-10T08:38:51.339Z,13.70
2022-12-10T08:41:22.176Z,13.10
2022-12-10T08:43:53.257Z,12.80
2022-12-10T08:46:22.416Z,21.70
2022-12-10T08:48:50.377Z,19.30
2022-12-10T08:51:20.293Z,27.20
2022-12-10T08:53:48.575Z,14.40
2022-12-10T08:56:16.641Z,8.70
2022-12-10T08:58:44.606Z,12.40
2022-12-10T09:01:16.077Z,9.00
2022-12-10T09:03:45.130Z,13.50
2022-12-10T09:06:19.697Z,29.10
2022-12-10T09:08:48.472Z,67.40
2022-12-10T09:11:20.874Z,45.00
2022-12-10T09:13:49.320Z,24.40
2022-12-10T09:16:17.628Z,9.30
2022-12-10T09:18:45.728Z,18.00
2022-12-10T09:21:18.262Z,17.40
2022-12-10T09:26:16.425Z,13.50
2022-12-10T09:28:45.624Z,16.10
2022-12-10T09:31:19.171Z,13.80
2022-12-10T09:33:50.958Z,21.30
2022-12-10T09:36:20.657Z,19.90
2022-12-10T09:38:49.732Z,22.70
2022-12-10T09:41:32.921Z,22.00
2022-12-10T09:44:12.554Z,22.90
2022-12-10T09:46:51.991Z,21.50
2022-12-10T09:49:28.863Z,22.60
2022-12-10T09:52:00.598Z,27.60
2022-12-10T09:54:35.968Z,32.80
2022-12-10T09:57:06.576Z,23.30
2022-12-10T09:59:43.586Z,28.30
2022-12-10T10:02:21.057Z,33.80
2022-12-10T10:04:55.424Z,89.00
2022-12-10T10:07:29.869Z,68.50
2022-12-10T10:10:02.322Z,25.20
2022-12-10T10:12:32.504Z,38.10
2022-12-10T10:15:11.529Z,30.00
2022-12-10T10:17:40.420Z,26.00
2022-12-10T10:20:09.007Z,28.80
2022-12-10T10:22:37.209Z,20.30
2022-12-10T10:25:07.100Z,20.80
2022-12-10T10:27:34.929Z,22.20
2022-12-10T10:30:05.647Z,31.60
2022-12-10T10:32:36.631Z,32.10
2022-12-10T10:35:06.047Z,30.30
2022-12-10T10:37:36.965Z,22.80
2022-12-10T10:40:05.313Z,21.70
2022-12-10T10:42:37.735Z,25.50
2022-12-10T10:45:27.295Z,24.50
2022-12-10T10:48:15.597Z,18.70
2022-12-10T10:50:50.020Z,16.00
2022-12-10T10:53:22.636Z,15.00
2022-12-10T10:55:51.513Z,13.10
2022-12-10T10:58:24.105Z,19.80
2022-12-10T11:01:04.139Z,20.10
2022-12-10T11:03:36.086Z,30.90
2022-12-10T11:06:08.444Z,34.50
2022-12-10T11:08:40.189Z,28.20
2022-12-10T11:11:18.559Z,25.30
2022-12-10T11:13:46.837Z,17.90
2022-12-10T11:16:26.100Z,24.90
2022-12-10T11:18:57.517Z,16.80
2022-12-10T11:21:26.078Z,17.50
2022-12-10T11:23:55.296Z,24.60
2022-12-10T11:26:51.938Z,23.50
2022-12-10T11:29:48.523Z,24.30
2022-12-10T11:32:22.488Z,26.40
2022-12-10T11:35:22.719Z,27.10
2022-12-10T11:37:57.481Z,64.70
2022-12-10T11:40:47.933Z,20.50
2022-12-10T11:43:46.497Z,28.30
2022-12-10T11:46:39.678Z,30.20
2022-12-10T11:49:28.537Z,25.20
2022-12-10T11:52:12.788Z,22.40
2022-12-10T11:55:15.942Z,27.50
2022-12-10T11:58:02.082Z,20.90
2022-12-10T12:00:43.146Z,21.60
2022-12-10T12:03:30.356Z,16.50
2022-12-10T12:06:08.146Z,16.90
2022-12-10T12:08:55.083Z,21.50
2022-12-10T12:11:49.062Z,16.70
2022-12-10T12:14:40.993Z,19.30
2022-12-10T12:17:18.074Z,15.10
2022-12-10T12:19:52.848Z,19.90
2022-12-10T12:22:30.869Z,20.10
2022-12-10T12:25:09.411Z,20.40
2022-12-10T12:27:44.523Z,23.10
2022-12-10T12:30:21.295Z,17.10
2022-12-10T12:33:36.395Z,20.50
2022-12-10T12:36:12.504Z,18.70
2022-12-10T12:38:56.879Z,15.10
2022-12-10T12:41:32.816Z,18.70
2022-12-10T12:44:10.343Z,24.90
2022-12-10T12:46:47.277Z,24.80
2022-12-10T12:49:23.663Z,22.50
2022-12-10T12:52:11.490Z,27.90
2022-12-10T12:54:41.587Z,29.90
2022-12-10T12:57:37.386Z,41.00
2022-12-10T13:00:12.934Z,36.60
2022-12-10T13:02:56.289Z,45.30
2022-12-10T13:05:33.748Z,40.50
2022-12-10T13:08:30.136Z,42.00
2022-12-10T13:10:58.015Z,56.60
2022-12-10T13:13:28.795Z,39.40
2022-12-10T13:18:37.283Z,44.60
2022-12-10T13:21:17.442Z,30.20
2022-12-10T13:23:53.645Z,28.50
2022-12-10T13:26:31.073Z,34.00
2022-12-10T13:29:26.335Z,39.00
2022-12-10T13:32:02.089Z,50.60
2022-12-10T13:34:38.272Z,66.80
2022-12-10T13:37:32.125Z,68.80
2022-12-10T13:40:09.442Z,58.20
2022-12-10T13:42:58.607Z,42.60
2022-12-10T13:45:30.676Z,35.70
2022-12-10T13:48:17.114Z,45.50
2022-12-10T13:50:54.143Z,57.10
2022-12-10T13:53:42.177Z,61.80
2022-12-10T13:56:31.750Z,76.60
2022-12-10T13:59:05.544Z,49.40
2022-12-10T14:01:51.703Z,44.10
2022-12-10T14:04:40.801Z,31.60
2022-12-10T14:07:13.936Z,26.20
2022-12-10T14:09:50.976Z,27.40
2022-12-10T14:12:34.099Z,24.40
2022-12-10T14:15:27.253Z,26.90
2022-12-10T14:18:12.733Z,32.50
2022-12-10T14:20:47.458Z,36.50
2022-12-10T14:23:33.862Z,37.60
2022-12-10T14:26:06.743Z,45.10
2022-12-10T14:28:39.934Z,47.00
2022-12-10T14:31:14.960Z,42.30
2022-12-10T14:33:47.820Z,47.30
2022-12-10T14:36:27.789Z,40.70
2022-12-10T14:38:57.206Z,53.30
2022-12-10T14:41:27.171Z,40.90
2022-12-10T14:43:55.804Z,43.20
2022-12-10T14:46:29.602Z,45.00
2022-12-10T14:48:57.700Z,48.80
2022-12-10T14:51:32.734Z,47.00
2022-12-10T14:54:00.695Z,45.90
2022-12-10T14:56:35.342Z,270.30
2022-12-10T14:59:17.306Z,78.00
2022-12-10T15:01:50.254Z,151.60
2022-12-10T15:04:26.191Z,58.60
2022-12-10T15:07:01.893Z,49.50
2022-12-10T15:09:30.174Z,48.60
2022-12-10T15:12:00.594Z,48.90
2022-12-10T15:14:31.040Z,50.30
2022-12-10T15:17:02.965Z,50.90
2022-12-10T15:19:32.589Z,54.60
2022-12-10T15:22:15.910Z,52.60
2022-12-10T15:24:44.374Z,39.60
2022-12-10T15:27:24.201Z,42.40
2022-12-10T15:29:53.014Z,41.30
2022-12-10T15:32:27.787Z,39.80
2022-12-10T15:34:59.498Z,44.90
2022-12-10T15:37:34.884Z,41.60
2022-12-10T15:40:08.957Z,46.10
2022-12-10T15:42:43.582Z,53.60
2022-12-10T15:45:17.815Z,54.10
2022-12-10T15:47:46.095Z,51.30
2022-12-10T15:50:14.588Z,58.80
2022-12-10T15:52:43.273Z,51.40
2022-12-10T15:55:12.712Z,40.00
2022-12-10T15:57:45.917Z,41.20
2022-12-10T16:00:21.088Z,35.60
2022-12-10T16:02:59.708Z,27.00
2022-12-10T16:05:30.705Z,24.20
2022-12-10T16:08:12.272Z,21.90
2022-12-10T16:10:40.825Z,22.00
2022-12-10T16:13:16.428Z,19.60
2022-12-10T16:15:51.644Z,22.60
2022-12-10T16:18:20.192Z,17.50
2022-12-10T16:20:48.057Z,19.80
2022-12-10T16:23:16.118Z,20.60
2022-12-10T16:25:45.331Z,25.30
2022-12-10T16:28:18.409Z,71.40
2022-12-10T16:30:54.931Z,101.80
2022-12-10T16:33:25.369Z,106.40
2022-12-10T16:35:54.383Z,93.70
2022-12-10T16:38:22.685Z,93.20
2022-12-10T16:40:50.927Z,92.00
2022-12-10T16:43:26.131Z,83.80
2022-12-10T16:45:55.430Z,75.60
2022-12-10T16:48:23.468Z,75.70
2022-12-10T16:50:53.455Z,124.20
2022-12-10T16:53:27.485Z,131.50
2022-12-10T16:55:57.484Z,95.20
2022-12-10T16:58:25.941Z,98.40
2022-12-10T17:00:55.581Z,112.20
2022-12-10T17:03:29.715Z,107.90
2022-12-10T17:06:00.493Z,120.10
2022-12-10T17:08:29.660Z,64.10
2022-12-10T17:11:17.306Z,44.30
2022-12-10T17:13:46.009Z,40.50
2022-12-10T17:16:19.746Z,40.20
2022-12-10T17:18:47.748Z,32.90
2022-12-10T17:21:15.606Z,33.50
2022-12-10T17:23:43.760Z,29.10
2022-12-10T17:26:27.444Z,36.00
2022-12-10T17:29:02.239Z,28.00
2022-12-10T17:31:31.114Z,34.50
2022-12-10T17:33:59.547Z,43.90
2022-12-10T17:36:28.123Z,35.40
2022-12-10T17:38:56.296Z,44.20
2022-12-10T17:41:24.478Z,34.30
2022-12-10T17:43:52.257Z,29.10
2022-12-10T17:46:24.657Z,29.30
2022-12-10T17:48:54.120Z,30.90
2022-12-10T17:51:23.547Z,36.40
2022-12-10T17:53:51.397Z,28.90
2022-12-10T17:56:25.143Z,22.60
2022-12-10T17:58:53.202Z,23.40
2022-12-10T18:01:23.518Z,18.50
2022-12-10T18:03:51.798Z,17.60
2022-12-10T18:06:24.689Z,16.10
2022-12-10T18:08:54.621Z,13.90
2022-12-10T18:11:31.189Z,12.60
2022-12-10T18:13:59.221Z,13.30
2022-12-10T18:16:32.253Z,10.10
2022-12-10T18:19:05.509Z,10.50
2022-12-10T18:21:37.718Z,11.80
2022-12-10T18:24:06.053Z,12.00
2022-12-10T18:26:34.991Z,11.40
2022-12-10T18:29:04.469Z,12.10
2022-12-10T18:31:35.477Z,12.30
2022-12-10T18:36:36.079Z,15.00
2022-12-10T18:39:07.958Z,12.60
2022-12-10T18:41:36.600Z,13.30
2022-12-10T18:44:04.893Z,13.20
2022-12-10T18:46:36.481Z,13.20
2022-12-10T18:49:05.077Z,11.50
2022-12-10T18:51:33.060Z,10.40
2022-12-10T18:54:01.206Z,12.30
2022-12-10T18:56:33.198Z,10.60
2022-12-10T18:59:01.526Z,14.60
2022-12-10T19:01:30.981Z,12.20
2022-12-10T19:03:59.280Z,13.00
2022-12-10T19:06:29.213Z,14.80
2022-12-10T19:09:17.688Z,11.00
2022-12-10T19:11:47.887Z,16.40
2022-12-10T19:14:16.649Z,11.90
2022-12-10T19:16:45.647Z,12.60
2022-12-10T19:19:15.701Z,11.20
2022-12-10T19:21:44.952Z,14.40
2022-12-10T19:24:14.051Z,15.80
2022-12-10T19:26:43.831Z,15.20
2022-12-10T19:29:20.842Z,16.00
2022-12-10T19:31:50.850Z,14.20
2022-12-10T19:34:20.513Z,13.80
2022-12-10T19:36:50.176Z,12.60
2022-12-10T19:39:25.230Z,11.00
2022-12-10T19:41:55.254Z,12.10
2022-12-10T19:44:23.290Z,12.60
2022-12-10T19:46:51.567Z,10.80
2022-12-10T19:49:20.142Z,11.50
2022-12-10T19:51:49.016Z,14.10
2022-12-10T19:54:17.423Z,13.40
2022-12-10T19:56:46.121Z,14.40
2022-12-10T19:59:19.692Z,12.30
2022-12-10T20:01:48.608Z,12.90
2022-12-10T20:04:17.984Z,9.90
2022-12-10T20:06:48.507Z,14.40
2022-12-10T20:09:19.777Z,11.80
2022-12-10T20:11:48.159Z,13.10
2022-12-10T20:14:17.375Z,12.90
2022-12-10T20:16:46.533Z,12.70
2022-12-10T20:19:16.235Z,13.80
2022-12-10T20:21:44.479Z,13.90
2022-12-10T20:24:14.948Z,15.30
2022-12-10T20:26:45.707Z,13.50
2022-12-10T20:29:20.090Z,13.60
2022-12-10T20:31:49.409Z,14.60
2022-12-10T20:34:18.169Z,13.70
2022-12-10T20:36:46.796Z,13.40
2022-12-10T20:39:21.905Z,13.00
2022-12-10T20:41:50.957Z,14.30
2022-12-10T20:44:19.905Z,16.60
2022-12-10T20:46:48.872Z,13.40
2022-12-10T20:49:19.810Z,12.30
2022-12-10T20:51:48.372Z,12.30
2022-12-10T20:54:16.741Z,12.40
2022-12-10T20:56:44.732Z,13.00
2022-12-10T20:59:14.837Z,12.60
2022-12-10T21:01:43.059Z,12.40
2022-12-10T21:04:12.081Z,17.10
2022-12-10T21:06:43.305Z,15.10
2022-12-10T21:09:12.399Z,20.30
2022-12-10T21:11:40.946Z,15.80
2022-12-10T21:14:18.452Z,17.60
2022-12-10T21:16:58.864Z,15.40
2022-12-10T21:19:28.021Z,15.20
2022-12-10T21:21:56.345Z,18.00
2022-12-10T21:24:24.945Z,15.60
2022-12-10T21:26:52.760Z,16.80
2022-12-10T21:29:21.328Z,18.40
2022-12-10T21:31:49.246Z,19.80
2022-12-10T21:34:17.085Z,17.10
2022-12-10T21:36:44.981Z,14.20
2022-12-10T21:39:12.845Z,16.60
2022-12-10T21:42:02.726Z,16.50
2022-12-10T21:44:32.841Z,14.60
2022-12-10T21:47:00.965Z,17.30
2022-12-10T21:49:29.049Z,19.30
2022-12-10T21:51:57.278Z,16.10
2022-12-10T21:54:25.169Z,18.10
2022-12-10T21:56:53.153Z,17.50
2022-12-10T21:59:21.323Z,16.90
2022-12-10T22:01:49.465Z,17.50
2022-12-10T22:04:17.938Z,20.60
2022-12-10T22:06:46.154Z,24.20
2022-12-10T22:09:14.223Z,19.40
2022-12-10T22:11:42.596Z,22.60
2022-12-10T22:14:10.781Z,25.40
2022-12-10T22:16:42.397Z,25.80
2022-12-10T22:19:12.850Z,27.60
2022-12-10T22:21:40.778Z,25.40
2022-12-10T22:24:08.744Z,23.00
2022-12-10T22:26:36.654Z,23.70
2022-12-10T22:29:04.626Z,21.90
2022-12-10T22:31:32.741Z,22.80
2022-12-10T22:34:00.766Z,19.40
2022-12-10T22:36:28.634Z,20.00
2022-12-10T22:38:56.608Z,24.50
2022-12-10T22:41:24.572Z,23.90
2022-12-10T22:43:52.900Z,22.90
2022-12-10T22:46:21.686Z,21.10
2022-12-10T22:48:50.143Z,22.00
2022-12-10T22:51:18.326Z,22.00
2022-12-10T22:53:46.862Z,18.90
2022-12-10T22:56:15.675Z,19.20
2022-12-10T22:58:44.143Z,16.60
2022-12-10T23:01:19.163Z,18.80
2022-12-10T23:03:49.438Z,21.80
2022-12-10T23:06:18.204Z,24.80
2022-12-10T23:08:46.661Z,28.50
2022-12-10T23:11:16.274Z,22.40
2022-12-10T23:13:45.000Z,20.20
2022-12-10T23:16:17.309Z,21.00
2022-12-10T23:18:50.201Z,19.30
2022-12-10T23:21:27.134Z,15.60
2022-12-10T23:23:55.076Z,20.50
2022-12-10T23:26:22.856Z,24.60
2022-12-10T23:28:50.954Z,18.00
2022-12-10T23:31:20.131Z,19.60
2022-12-10T23:33:48.153Z,18.40
2022-12-10T23:36:16.244Z,17.40
2022-12-10T23:38:44.364Z,25.20
2022-12-10T23:41:12.540Z,19.70
2022-12-10T23:43:40.830Z,18.00
2022-12-10T23:46:09.360Z,21.60
2022-12-10T23:48:37.682Z,19.10
2022-12-10T23:51:06.409Z,15.90
2022-12-10T23:53:34.509Z,14.50
2022-12-10T23:56:15.556Z,14.20
2022-12-10T23:58:44.445Z,13.40
